Time;durP1;ratioP1;P1;durP2;ratioP2;P2;SDS_P1;SDS_P2;PMS_P1;PMS_P2;Temp;Humidity;BMP_temperature;BMP_pressure;BME280_temperature;BME280_humidity;BME280_pressure;Samples;Min_cycle;Max_cycle;Signal;HPM_P1;HPM_P2
2020/12/18 00:02:26;;;;;;;1.52;1.25;;;5.40;99.90;;;;;;4997742;28;20681;-68
2020/12/18 00:04:51;;;;;;;1.15;1.05;;;5.30;99.90;;;;;;4995991;28;20210;-68
2020/12/18 00:07:18;;;;;;;1.00;0.90;;;5.30;99.90;;;;;;4996040;28;20689;-69
2020/12/18 00:09:44;;;;;;;1.15;1.02;;;5.30;99.90;;;;;;4993993;28;20741;-68
2020/12/18 00:12:11;;;;;;;1.00;0.90;;;5.30;99.90;;;;;;4996419;28;20217;-69
2020/12/18 00:14:37;;;;;;;0.90;0.80;;;5.30;99.90;;;;;;4994804;28;20677;-69
2020/12/18 00:17:05;;;;;;;1.13;1.00;;;5.30;99.90;;;;;;4995228;28;20202;-69
2020/12/18 00:19:31;;;;;;;1.10;0.90;;;5.30;99.90;;;;;;4995664;28;20920;-69
2020/12/18 00:21:57;;;;;;;0.80;0.80;;;5.20;99.90;;;;;;4996378;28;20627;-68
2020/12/18 00:24:23;;;;;;;0.90;0.90;;;5.20;99.90;;;;;;4995663;28;20274;-69
2020/12/18 00:26:49;;;;;;;0.80;0.80;;;5.20;99.90;;;;;;4998287;28;20269;-68
2020/12/18 00:29:14;;;;;;;1.30;1.20;;;5.20;99.90;;;;;;4996630;28;20605;-69
2020/12/18 00:31:40;;;;;;;1.10;1.00;;;5.20;99.90;;;;;;4998035;28;20199;-69
2020/12/18 00:34:06;;;;;;;0.90;0.88;;;5.20;99.90;;;;;;4994796;28;20218;-69
2020/12/18 00:36:32;;;;;;;1.00;0.90;;;5.20;99.90;;;;;;4996821;28;20777;-67
2020/12/18 00:38:58;;;;;;;1.02;0.90;;;5.20;99.90;;;;;;4999954;28;20202;-68
2020/12/18 00:41:24;;;;;;;1.02;0.90;;;5.20;99.90;;;;;;4998053;28;20537;-68
2020/12/18 00:43:49;;;;;;;0.73;0.73;;;5.20;99.90;;;;;;4993442;28;20207;-69
2020/12/18 00:46:15;;;;;;;1.15;1.05;;;5.20;99.90;;;;;;4999013;28;20277;-68
2020/12/18 00:48:41;;;;;;;3.33;0.90;;;5.10;99.90;;;;;;4995349;28;20282;-68
2020/12/18 00:51:06;;;;;;;1.95;1.05;;;5.10;99.90;;;;;;4999843;28;20630;-68
2020/12/18 00:53:34;;;;;;;0.95;0.90;;;5.10;99.90;;;;;;4997365;28;20198;-69
2020/12/18 00:56:00;;;;;;;0.90;0.85;;;5.10;99.90;;;;;;4994024;28;20200;-69
2020/12/18 00:58:25;;;;;;;1.20;1.02;;;5.10;99.90;;;;;;4991788;28;20205;-68
2020/12/18 01:00:51;;;;;;;0.77;0.77;;;5.10;99.90;;;;;;4997613;28;20238;-68
2020/12/18 01:03:17;;;;;;;1.48;0.90;;;5.10;99.90;;;;;;4996884;28;20203;-68
2020/12/18 01:05:43;;;;;;;1.20;1.10;;;5.10;99.90;;;;;;4994457;28;20232;-68
2020/12/18 01:08:08;;;;;;;1.90;1.00;;;5.10;99.90;;;;;;4998705;28;20197;-68
2020/12/18 01:10:34;;;;;;;1.20;1.10;;;5.10;99.90;;;;;;4998937;28;20230;-68
2020/12/18 01:13:00;;;;;;;1.25;1.15;;;5.10;99.90;;;;;;4994364;28;20302;-69
2020/12/18 01:15:25;;;;;;;3.20;1.10;;;5.10;99.90;;;;;;4992752;28;20203;-68
2020/12/18 01:17:51;;;;;;;1.48;1.15;;;5.10;99.90;;;;;;4993383;28;20202;-67
2020/12/18 01:20:17;;;;;;;1.30;1.00;;;5.10;99.90;;;;;;4998919;28;20880;-69
2020/12/18 01:22:42;;;;;;;5.35;1.20;;;5.10;99.90;;;;;;4998490;28;20278;-70
2020/12/18 01:25:08;;;;;;;1.80;1.10;;;5.10;99.90;;;;;;4988685;28;20261;-68
2020/12/18 01:27:35;;;;;;;2.08;1.10;;;5.10;99.90;;;;;;4994313;28;20191;-68
2020/12/18 01:30:01;;;;;;;3.70;1.00;;;5.10;99.90;;;;;;4997489;28;20207;-68
2020/12/18 01:32:26;;;;;;;1.10;1.00;;;5.10;99.90;;;;;;4998718;28;20213;-69
2020/12/18 01:34:52;;;;;;;1.15;1.02;;;5.10;99.90;;;;;;4996031;28;20657;-67
2020/12/18 01:37:18;;;;;;;1.20;1.10;;;5.10;99.90;;;;;;4997916;28;20295;-69
2020/12/18 01:39:44;;;;;;;1.05;0.90;;;5.10;99.90;;;;;;4997776;28;20374;-69
2020/12/18 01:42:09;;;;;;;2.08;1.33;;;5.10;99.90;;;;;;4996975;28;20190;-69
2020/12/18 01:44:41;;;;;;;1.23;1.13;;;5.10;99.90;;;;;;4996069;28;20663;-68
2020/12/18 01:47:23;;;;;;;1.38;0.98;;;5.10;99.90;;;;;;4999454;28;20195;-67
2020/12/18 01:49:50;;;;;;;0.90;0.90;;;5.10;99.90;;;;;;4997016;28;20195;-69
2020/12/18 01:52:15;;;;;;;10.40;1.00;;;5.10;99.90;;;;;;4998108;28;20210;-67
2020/12/18 01:54:42;;;;;;;1.60;0.90;;;5.10;99.90;;;;;;4996191;28;20206;-67
2020/12/18 01:57:08;;;;;;;1.02;1.00;;;5.10;99.90;;;;;;4997534;28;20206;-69
2020/12/18 01:59:34;;;;;;;1.13;1.00;;;5.10;99.90;;;;;;4996180;28;20596;-69
2020/12/18 02:02:00;;;;;;;5.82;1.20;;;5.10;99.90;;;;;;5003109;28;20203;-69
2020/12/18 02:04:26;;;;;;;1.08;0.98;;;5.10;99.90;;;;;;4995120;23;20693;-69
2020/12/18 02:06:54;;;;;;;1.20;1.00;;;5.10;99.90;;;;;;5001967;28;20207;-69
2020/12/18 02:09:21;;;;;;;1.20;1.10;;;5.10;99.90;;;;;;4998134;28;20198;-69
2020/12/18 02:11:47;;;;;;;1.08;0.98;;;5.10;99.90;;;;;;4992704;28;20226;-69
2020/12/18 02:14:13;;;;;;;1.23;1.10;;;5.10;99.90;;;;;;4997355;28;20202;-68
2020/12/18 02:16:40;;;;;;;1.88;1.20;;;5.10;99.90;;;;;;4999792;28;20665;-69
2020/12/18 02:19:09;;;;;;;1.30;1.10;;;5.10;99.90;;;;;;5001114;28;20274;-69
2020/12/18 02:21:39;;;;;;;0.98;0.95;;;5.10;99.90;;;;;;5000916;28;20211;-68
2020/12/18 02:24:04;;;;;;;1.10;1.00;;;5.10;99.90;;;;;;4996434;28;20203;-69
2020/12/18 02:26:30;;;;;;;1.10;1.00;;;5.20;99.90;;;;;;4999125;28;20209;-69
2020/12/18 02:28:56;;;;;;;0.85;0.85;;;5.10;99.90;;;;;;4998200;28;20771;-68
2020/12/18 02:31:22;;;;;;;1.15;0.90;;;5.20;99.90;;;;;;4997061;28;20214;-69
2020/12/18 02:33:47;;;;;;;1.98;0.90;;;5.10;99.90;;;;;;4997620;28;20245;-69
2020/12/18 02:36:13;;;;;;;2.78;0.90;;;5.10;99.90;;;;;;5001100;28;20585;-69
2020/12/18 02:38:39;;;;;;;0.93;0.90;;;5.10;99.90;;;;;;4997242;28;20195;-68
2020/12/18 02:41:05;;;;;;;0.90;0.90;;;5.10;99.90;;;;;;4996426;28;21079;-69
2020/12/18 02:43:31;;;;;;;0.90;0.90;;;5.10;99.90;;;;;;4996208;28;20183;-68
2020/12/18 02:45:57;;;;;;;1.45;0.93;;;5.20;99.90;;;;;;4997200;28;20816;-68
2020/12/18 02:48:23;;;;;;;1.27;1.05;;;5.10;99.90;;;;;;4996077;28;20202;-69
2020/12/18 02:50:49;;;;;;;0.90;0.90;;;5.10;99.90;;;;;;4997069;28;20203;-69
2020/12/18 02:53:21;;;;;;;2.25;0.98;;;5.10;99.90;;;;;;4998587;28;20317;-68
2020/12/18 02:55:47;;;;;;;1.23;0.95;;;5.10;99.90;;;;;;4996825;28;20194;-68
2020/12/18 02:58:14;;;;;;;1.13;0.90;;;5.10;99.90;;;;;;4995446;28;20265;-69
2020/12/18 03:00:40;;;;;;;1.65;1.10;;;5.10;99.90;;;;;;4996543;28;21162;-69
2020/12/18 03:03:06;;;;;;;0.90;0.90;;;5.10;99.90;;;;;;4996706;28;20590;-68
2020/12/18 03:05:33;;;;;;;1.33;1.13;;;5.10;99.90;;;;;;4983436;28;20215;-69
2020/12/18 03:07:59;;;;;;;1.20;1.10;;;5.10;99.90;;;;;;4982496;28;20223;-69
2020/12/18 03:10:25;;;;;;;4.43;1.00;;;5.00;99.90;;;;;;4982457;28;20223;-68
2020/12/18 03:12:51;;;;;;;1.02;0.95;;;5.00;99.90;;;;;;4982370;28;20195;-68
2020/12/18 03:15:18;;;;;;;2.45;1.00;;;5.00;99.90;;;;;;4983608;28;20246;-68
2020/12/18 03:17:44;;;;;;;0.85;0.85;;;5.00;99.90;;;;;;4982794;28;20196;-68
2020/12/18 03:20:10;;;;;;;0.80;0.80;;;5.00;99.90;;;;;;4984631;28;20231;-69
2020/12/18 03:22:36;;;;;;;1.83;1.00;;;5.00;99.90;;;;;;4985021;28;20262;-68
2020/12/18 03:25:03;;;;;;;1.27;0.80;;;4.90;99.90;;;;;;4986342;28;20672;-69
2020/12/18 03:27:29;;;;;;;0.80;0.80;;;5.00;99.90;;;;;;4980607;28;20191;-68
2020/12/18 03:29:55;;;;;;;0.88;0.82;;;4.90;99.90;;;;;;4985777;28;20200;-68
2020/12/18 03:32:20;;;;;;;1.00;1.00;;;4.90;99.90;;;;;;4984322;28;20218;-68
2020/12/18 03:34:46;;;;;;;1.00;0.90;;;4.90;99.90;;;;;;4986841;28;20306;-68
2020/12/18 03:37:12;;;;;;;0.82;0.80;;;4.90;99.90;;;;;;4984224;28;20346;-67
2020/12/18 03:39:37;;;;;;;0.75;0.70;;;4.90;99.90;;;;;;4982468;28;20200;-68
2020/12/18 03:42:03;;;;;;;1.08;0.98;;;4.90;99.90;;;;;;4979469;28;20275;-69
2020/12/18 03:44:29;;;;;;;1.23;1.00;;;4.90;99.90;;;;;;4983596;28;20235;-68
2020/12/18 03:46:54;;;;;;;1.05;1.00;;;4.90;99.90;;;;;;4984305;28;20535;-69
2020/12/18 03:49:20;;;;;;;1.90;1.00;;;4.90;99.90;;;;;;4984011;28;20227;-69
2020/12/18 03:51:46;;;;;;;0.88;0.88;;;4.90;99.90;;;;;;4989891;28;20203;-68
2020/12/18 03:54:11;;;;;;;1.13;1.00;;;4.80;99.90;;;;;;4983918;28;20215;-68
2020/12/18 03:56:37;;;;;;;1.10;1.00;;;4.80;99.90;;;;;;4986575;28;20206;-68
2020/12/18 03:59:03;;;;;;;1.10;1.00;;;4.80;99.90;;;;;;4983208;28;20211;-68
2020/12/18 04:01:29;;;;;;;1.58;1.02;;;4.80;99.90;;;;;;4983448;28;20297;-68
2020/12/18 04:03:54;;;;;;;1.30;1.13;;;4.70;99.90;;;;;;4982692;28;22413;-69
2020/12/18 04:06:21;;;;;;;1.27;1.00;;;4.70;99.90;;;;;;4984501;28;20226;-68
2020/12/18 04:08:47;;;;;;;1.17;1.08;;;4.70;99.90;;;;;;4982370;28;20203;-68
2020/12/18 04:11:13;;;;;;;1.73;1.15;;;4.70;99.90;;;;;;4981738;28;20207;-68
2020/12/18 04:13:39;;;;;;;1.13;1.02;;;4.70;99.90;;;;;;4984635;28;20218;-68
2020/12/18 04:16:05;;;;;;;3.45;1.33;;;4.70;99.90;;;;;;4983852;28;20287;-68
2020/12/18 04:18:31;;;;;;;1.50;1.20;;;4.70;99.90;;;;;;4984703;28;20710;-68
2020/12/18 04:20:59;;;;;;;1.20;1.10;;;4.70;99.90;;;;;;4984534;28;20606;-68
2020/12/18 04:23:25;;;;;;;1.30;1.00;;;4.70;99.90;;;;;;4979361;28;20203;-68
2020/12/18 04:25:50;;;;;;;1.10;1.00;;;4.70;99.90;;;;;;4985924;28;20199;-68
2020/12/18 04:28:16;;;;;;;1.10;1.00;;;4.70;99.90;;;;;;4986122;28;20196;-68
2020/12/18 04:30:43;;;;;;;1.60;1.05;;;4.60;99.90;;;;;;4983728;28;20234;-68
2020/12/18 04:33:09;;;;;;;1.10;1.00;;;4.60;99.90;;;;;;4985348;28;20196;-68
2020/12/18 04:35:35;;;;;;;1.27;1.10;;;4.60;99.90;;;;;;4983698;28;20215;-68
2020/12/18 04:38:00;;;;;;;1.23;1.13;;;4.60;99.90;;;;;;4986730;28;20206;-69
2020/12/18 04:40:27;;;;;;;1.20;1.10;;;4.60;99.90;;;;;;4983656;28;20199;-68
2020/12/18 04:42:54;;;;;;;1.67;1.30;;;4.60;99.90;;;;;;4983894;28;20234;-68
2020/12/18 04:45:20;;;;;;;1.33;1.20;;;4.60;99.90;;;;;;4983743;28;20215;-68
2020/12/18 04:47:48;;;;;;;1.20;1.10;;;4.60;99.90;;;;;;4985586;28;20533;-68
2020/12/18 04:50:14;;;;;;;2.17;1.20;;;4.50;99.90;;;;;;4984267;28;20239;-68
2020/12/18 04:52:40;;;;;;;1.38;1.25;;;4.50;99.90;;;;;;4984101;28;20222;-69
2020/12/18 04:55:10;;;;;;;1.23;1.13;;;4.50;99.90;;;;;;4977719;28;20695;-68
2020/12/18 04:57:40;;;;;;;1.02;1.00;;;4.40;99.90;;;;;;4983348;28;20199;-68
2020/12/18 05:00:07;;;;;;;1.13;1.02;;;4.40;99.90;;;;;;4989044;28;20202;-69
2020/12/18 05:02:35;;;;;;;1.15;1.02;;;4.40;99.90;;;;;;4984832;28;20200;-68
2020/12/18 05:05:01;;;;;;;1.30;1.20;;;4.40;99.90;;;;;;4984436;28;20226;-69
2020/12/18 05:07:27;;;;;;;1.27;1.17;;;4.40;99.90;;;;;;4985648;28;20203;-69
2020/12/18 05:09:54;;;;;;;1.17;1.08;;;4.40;99.90;;;;;;4987690;28;20203;-69
2020/12/18 05:12:20;;;;;;;3.20;1.60;;;4.40;99.90;;;;;;4978418;28;20682;-69
2020/12/18 05:14:46;;;;;;;1.48;1.30;;;4.40;99.90;;;;;;4980423;28;20207;-68
2020/12/18 05:17:12;;;;;;;1.20;1.10;;;4.40;99.90;;;;;;4974632;28;20207;-68
2020/12/18 05:19:42;;;;;;;1.38;1.20;;;4.40;99.90;;;;;;4975078;28;20203;-68
2020/12/18 05:22:10;;;;;;;1.08;0.98;;;4.40;99.90;;;;;;4987942;28;20205;-68
2020/12/18 05:24:37;;;;;;;1.30;1.20;;;4.40;99.90;;;;;;4977603;28;20219;-68
2020/12/18 05:27:04;;;;;;;1.40;1.30;;;4.40;99.90;;;;;;4974066;28;20202;-69
2020/12/18 05:29:30;;;;;;;1.23;1.13;;;4.40;99.90;;;;;;4976377;28;20199;-69
2020/12/18 05:31:58;;;;;;;1.55;1.38;;;4.40;99.90;;;;;;4975317;28;20207;-69
2020/12/18 05:34:24;;;;;;;1.38;1.27;;;4.40;99.90;;;;;;4977988;28;20281;-67
2020/12/18 05:36:50;;;;;;;1.30;1.15;;;4.40;99.90;;;;;;4976263;28;21014;-68
2020/12/18 05:39:16;;;;;;;1.20;1.10;;;4.30;99.90;;;;;;4973622;28;20211;-68
2020/12/18 05:42:16;;;;;;;1.20;1.10;;;4.40;99.90;;;;;;4976844;28;20518;-68
2020/12/18 05:44:42;;;;;;;1.15;1.05;;;4.30;99.90;;;;;;4936257;28;20318;-68
2020/12/18 05:47:09;;;;;;;1.70;1.13;;;4.30;99.90;;;;;;4980865;28;20369;-68
2020/12/18 05:49:38;;;;;;;3.67;1.10;;;4.20;99.90;;;;;;4979103;28;20212;-67
2020/12/18 05:52:05;;;;;;;1.67;1.20;;;4.20;99.90;;;;;;4977763;28;20210;-68
2020/12/18 05:54:33;;;;;;;1.20;1.10;;;4.20;99.90;;;;;;4981997;28;20230;-70
2020/12/18 05:57:11;;;;;;;1.40;1.30;;;4.20;99.90;;;;;;4980489;28;20281;-68
2020/12/18 05:59:47;;;;;;;1.30;1.20;;;4.20;99.90;;;;;;4977887;28;20924;-68
2020/12/18 06:02:17;;;;;;;1.27;1.10;;;4.20;99.90;;;;;;4982381;28;20768;-68
2020/12/18 06:04:46;;;;;;;1.17;1.08;;;4.30;99.90;;;;;;4986321;28;20247;-68
2020/12/18 06:07:14;;;;;;;1.15;1.02;;;4.30;99.90;;;;;;4977757;28;20195;-68
2020/12/18 06:09:40;;;;;;;1.10;1.00;;;4.30;99.90;;;;;;4974266;28;20196;-68
2020/12/18 06:12:07;;;;;;;1.30;1.20;;;4.20;99.90;;;;;;4973275;28;20223;-68
2020/12/18 06:14:34;;;;;;;1.00;1.00;;;4.20;99.90;;;;;;4970695;28;20204;-67
2020/12/18 06:17:06;;;;;;;1.13;1.02;;;4.20;99.90;;;;;;4970135;28;20528;-68
2020/12/18 06:19:40;;;;;;;1.50;1.10;;;4.10;99.90;;;;;;4973889;28;20649;-68
2020/12/18 06:22:08;;;;;;;0.85;0.85;;;4.10;99.90;;;;;;4979090;28;20207;-68
2020/12/18 06:24:42;;;;;;;0.95;0.90;;;4.10;99.90;;;;;;4976708;28;20207;-67
2020/12/18 06:27:11;;;;;;;1.20;1.00;;;4.10;99.90;;;;;;4968516;28;20200;-68
2020/12/18 06:29:37;;;;;;;2.03;1.20;;;4.10;99.90;;;;;;4978495;28;20272;-68
2020/12/18 06:32:26;;;;;;;1.60;1.20;;;4.10;99.90;;;;;;4971308;28;20212;-68
2020/12/18 06:34:53;;;;;;;1.30;1.00;;;4.00;99.90;;;;;;4974636;28;20208;-69
2020/12/18 06:37:45;;;;;;;1.00;0.85;;;4.00;99.90;;;;;;4970263;28;20719;-67
2020/12/18 06:40:34;;;;;;;1.13;1.02;;;3.90;99.90;;;;;;4971254;28;20303;-69
2020/12/18 06:43:00;;;;;;;0.90;0.90;;;3.90;99.90;;;;;;4972951;28;20222;-68
2020/12/18 06:45:26;;;;;;;1.25;1.02;;;3.80;99.90;;;;;;4978103;28;20207;-67
2020/12/18 06:47:52;;;;;;;1.10;1.00;;;3.80;99.90;;;;;;4975670;28;20195;-67
2020/12/18 06:50:20;;;;;;;1.52;1.25;;;3.70;99.90;;;;;;4974661;28;20349;-67
2020/12/18 06:52:55;;;;;;;1.10;1.00;;;3.70;99.90;;;;;;4992421;28;20550;-68
2020/12/18 06:55:30;;;;;;;1.48;1.20;;;3.60;99.90;;;;;;4975917;28;20207;-68
2020/12/18 06:58:14;;;;;;;1.75;1.13;;;3.60;99.90;;;;;;4973264;28;20261;-68
2020/12/18 07:00:53;;;;;;;1.00;1.00;;;3.60;99.90;;;;;;4977472;28;20212;-71
2020/12/18 07:03:39;;;;;;;1.23;1.13;;;3.60;99.90;;;;;;4977155;28;20199;-68
2020/12/18 07:06:07;;;;;;;1.50;1.00;;;3.60;99.90;;;;;;4978940;28;20207;-68
2020/12/18 07:08:35;;;;;;;1.13;1.02;;;3.60;99.90;;;;;;4976123;28;20207;-68
2020/12/18 07:11:12;;;;;;;1.20;1.10;;;3.60;99.90;;;;;;4979125;28;20203;-68
2020/12/18 07:13:47;;;;;;;1.67;1.20;;;3.60;99.90;;;;;;4980657;28;20199;-68
2020/12/18 07:16:16;;;;;;;1.80;1.38;;;3.70;99.90;;;;;;4976978;28;20195;-68
2020/12/18 07:18:43;;;;;;;1.15;1.05;;;3.70;99.90;;;;;;4970932;28;20559;-67
2020/12/18 07:21:11;;;;;;;1.55;1.20;;;3.70;99.90;;;;;;4974583;28;20215;-68
2020/12/18 07:23:41;;;;;;;1.25;1.15;;;3.70;99.90;;;;;;4972229;28;20917;-67
2020/12/18 07:26:08;;;;;;;3.83;1.20;;;3.70;99.90;;;;;;4975269;28;20195;-68
2020/12/18 07:28:39;;;;;;;1.38;1.20;;;3.60;99.90;;;;;;4976969;28;20199;-68
2020/12/18 07:31:14;;;;;;;1.50;1.00;;;3.60;99.90;;;;;;4968410;28;20199;-68
2020/12/18 07:33:40;;;;;;;1.85;1.50;;;3.60;99.90;;;;;;4969658;28;20259;-67
2020/12/18 07:36:06;;;;;;;1.42;1.30;;;3.60;99.90;;;;;;4977783;28;20215;-67
2020/12/18 07:38:33;;;;;;;1.55;1.20;;;3.60;99.90;;;;;;4973390;28;20742;-68
2020/12/18 07:41:14;;;;;;;1.70;1.50;;;3.60;99.90;;;;;;4978807;28;20784;-67
2020/12/18 07:43:41;;;;;;;2.80;1.35;;;3.60;99.90;;;;;;4969255;28;21033;-68
2020/12/18 07:46:09;;;;;;;5.78;1.05;;;3.60;99.90;;;;;;4976643;28;20301;-67
2020/12/18 07:48:39;;;;;;;4.15;1.20;;;3.60;99.90;;;;;;4968228;28;20200;-67
2020/12/18 07:51:11;;;;;;;2.30;1.40;;;3.60;99.90;;;;;;4977501;28;20200;-68
2020/12/18 07:53:42;;;;;;;2.55;1.25;;;3.60;99.90;;;;;;4971631;28;20306;-68
2020/12/18 07:56:08;;;;;;;1.92;1.30;;;3.60;99.90;;;;;;4969429;28;20204;-68
2020/12/18 07:58:55;;;;;;;1.33;1.10;;;3.70;99.90;;;;;;4976917;28;20200;-68
2020/12/18 08:01:29;;;;;;;2.78;1.30;;;3.70;99.90;;;;;;4974110;28;20578;-67
2020/12/18 08:03:58;;;;;;;3.15;1.45;;;3.70;99.90;;;;;;4978112;28;20307;-67
2020/12/18 08:06:27;;;;;;;2.85;1.40;;;3.70;99.90;;;;;;4977564;28;20195;-68
2020/12/18 08:09:03;;;;;;;1.63;1.52;;;3.70;99.90;;;;;;4973135;28;20203;-68
2020/12/18 08:11:31;;;;;;;1.60;1.50;;;3.70;99.90;;;;;;4977680;28;20535;-67
2020/12/18 08:13:58;;;;;;;4.07;1.80;;;3.70;99.90;;;;;;4974473;28;20282;-67
2020/12/18 08:16:26;;;;;;;1.83;1.52;;;3.70;99.90;;;;;;4973860;28;20745;-68
2020/12/18 08:18:58;;;;;;;2.63;1.65;;;3.80;99.90;;;;;;4975545;28;20199;-68
2020/12/18 08:21:33;;;;;;;2.75;1.73;;;3.70;99.90;;;;;;4975183;28;20230;-68
2020/12/18 08:24:27;;;;;;;2.22;1.50;;;3.80;99.90;;;;;;4969070;28;20199;-68
2020/12/18 08:27:01;;;;;;;5.55;1.60;;;3.80;99.90;;;;;;4974811;28;20198;-68
2020/12/18 08:29:31;;;;;;;4.07;1.60;;;3.80;99.90;;;;;;4975027;28;21097;-68
2020/12/18 08:31:59;;;;;;;2.70;1.70;;;3.80;99.90;;;;;;4976387;28;20200;-68
2020/12/18 08:34:27;;;;;;;2.83;1.40;;;3.90;99.90;;;;;;4974805;28;20302;-68
2020/12/18 08:36:53;;;;;;;2.85;1.60;;;3.90;99.90;;;;;;4976630;28;20206;-68
2020/12/18 08:39:19;;;;;;;2.53;1.30;;;3.90;99.90;;;;;;4971753;28;20200;-68
2020/12/18 08:41:53;;;;;;;5.53;1.50;;;3.90;99.90;;;;;;4978997;28;20231;-68
2020/12/18 08:44:28;;;;;;;3.78;1.33;;;3.90;99.90;;;;;;4971756;28;20198;-69
2020/12/18 08:46:56;;;;;;;2.95;1.42;;;3.90;99.90;;;;;;4971379;28;20206;-69
2020/12/18 08:49:25;;;;;;;3.15;1.45;;;3.90;99.90;;;;;;4962763;28;20195;-69
2020/12/18 08:51:53;;;;;;;3.22;1.48;;;3.90;99.90;;;;;;4974780;28;20199;-69
2020/12/18 08:54:34;;;;;;;2.15;1.45;;;3.90;99.90;;;;;;4981264;28;20219;-69
2020/12/18 08:57:18;;;;;;;2.42;1.30;;;4.00;99.90;;;;;;4973191;28;20199;-69
2020/12/18 09:00:03;;;;;;;2.38;1.27;;;4.00;99.90;;;;;;4975559;28;20237;-67
2020/12/18 09:02:30;;;;;;;3.72;1.73;;;4.10;99.90;;;;;;4982974;28;20294;-68
2020/12/18 09:05:12;;;;;;;2.90;1.48;;;4.10;99.90;;;;;;4981116;28;20265;-68
2020/12/18 09:07:42;;;;;;;1.42;1.27;;;4.10;99.90;;;;;;4992731;28;20199;-67
2020/12/18 09:10:10;;;;;;;4.60;1.40;;;4.10;99.90;;;;;;4981480;28;20256;-68
2020/12/18 09:12:43;;;;;;;1.70;1.35;;;4.10;99.90;;;;;;4977305;28;20200;-68
2020/12/18 09:15:23;;;;;;;2.15;1.33;;;4.10;99.90;;;;;;4976251;28;20216;-68
2020/12/18 09:18:04;;;;;;;4.32;1.40;;;4.10;99.90;;;;;;4970310;28;21055;-68
2020/12/18 09:20:32;;;;;;;2.45;1.58;;;4.10;99.90;;;;;;4967368;28;20303;-68
2020/12/18 09:23:01;;;;;;;1.60;1.30;;;4.20;99.90;;;;;;4977770;28;20213;-69
2020/12/18 09:25:27;;;;;;;1.92;1.40;;;4.20;99.90;;;;;;4972248;28;20192;-68
2020/12/18 09:27:54;;;;;;;2.30;1.48;;;4.20;99.90;;;;;;4966952;28;20208;-69
2020/12/18 09:30:28;;;;;;;3.08;1.73;;;4.20;99.90;;;;;;4978661;28;20295;-69
2020/12/18 09:33:16;;;;;;;3.65;1.58;;;4.20;99.90;;;;;;4990768;28;20294;-69
2020/12/18 09:35:42;;;;;;;8.73;1.88;;;4.30;99.90;;;;;;4969796;28;20665;-68
2020/12/18 09:38:09;;;;;;;4.20;1.63;;;4.30;99.90;;;;;;4973037;28;20279;-68
2020/12/18 09:40:35;;;;;;;2.53;1.83;;;4.30;99.90;;;;;;4969131;28;20212;-69
2020/12/18 09:43:02;;;;;;;5.15;1.85;;;4.30;99.90;;;;;;4973821;28;20194;-69
2020/12/18 09:45:27;;;;;;;4.53;1.75;;;4.30;99.90;;;;;;4972639;28;20224;-69
2020/12/18 09:47:53;;;;;;;6.35;1.70;;;4.30;99.90;;;;;;4974785;28;20322;-68
2020/12/18 09:50:19;;;;;;;5.90;1.90;;;4.30;99.90;;;;;;4980564;28;20204;-69
2020/12/18 09:52:44;;;;;;;3.92;1.70;;;4.40;99.90;;;;;;4979273;28;20358;-68
2020/12/18 09:55:10;;;;;;;4.60;1.75;;;4.40;99.90;;;;;;4978761;28;20223;-68
2020/12/18 09:57:36;;;;;;;2.88;1.73;;;4.40;99.90;;;;;;4978893;28;20207;-68
2020/12/18 10:00:07;;;;;;;2.58;1.60;;;4.40;99.90;;;;;;4977940;28;20208;-68
2020/12/18 10:02:33;;;;;;;4.97;1.73;;;4.40;99.90;;;;;;4980780;28;20196;-68
2020/12/18 10:04:58;;;;;;;5.22;1.88;;;4.40;99.90;;;;;;4982491;28;20227;-68
2020/12/18 10:07:24;;;;;;;1.83;1.60;;;4.50;99.90;;;;;;4980836;28;20674;-69
2020/12/18 10:09:50;;;;;;;3.92;1.80;;;4.50;99.90;;;;;;4975120;28;20196;-69
2020/12/18 10:12:15;;;;;;;7.38;1.88;;;4.60;99.90;;;;;;4973621;28;20211;-69
2020/12/18 10:14:41;;;;;;;2.85;1.73;;;4.60;99.90;;;;;;4973538;28;20662;-69
2020/12/18 10:17:07;;;;;;;4.85;1.60;;;4.60;99.90;;;;;;4981367;28;20208;-68
2020/12/18 10:19:35;;;;;;;3.53;2.20;;;4.60;99.90;;;;;;4968874;28;20278;-68
2020/12/18 10:22:01;;;;;;;2.72;1.75;;;4.60;99.90;;;;;;4970197;28;20761;-69
2020/12/18 10:24:27;;;;;;;2.35;1.52;;;4.70;99.90;;;;;;4976584;28;20227;-69
2020/12/18 10:26:52;;;;;;;6.13;2.05;;;4.70;99.90;;;;;;4976737;28;20687;-68
2020/12/18 10:29:18;;;;;;;4.63;1.92;;;4.70;99.90;;;;;;4968570;28;20274;-68
2020/12/18 10:31:44;;;;;;;4.53;1.80;;;4.70;99.90;;;;;;4978074;28;20213;-68
2020/12/18 10:34:09;;;;;;;4.43;1.88;;;4.70;99.90;;;;;;4973115;28;20334;-69
2020/12/18 10:36:35;;;;;;;2.90;1.90;;;4.70;99.90;;;;;;4982148;28;20229;-68
2020/12/18 10:39:01;;;;;;;3.35;2.00;;;4.70;99.90;;;;;;4980089;28;20266;-68
2020/12/18 10:41:27;;;;;;;5.03;2.20;;;4.80;99.90;;;;;;4977801;28;20212;-68
2020/12/18 10:43:52;;;;;;;5.03;2.40;;;4.70;99.90;;;;;;4962891;28;20208;-68
2020/12/18 10:46:18;;;;;;;7.38;2.47;;;4.60;99.90;;;;;;4972056;28;20206;-68
2020/12/18 10:48:44;;;;;;;5.10;2.10;;;4.60;99.90;;;;;;4977701;28;20203;-69
2020/12/18 10:51:09;;;;;;;9.05;2.20;;;4.60;99.90;;;;;;4978912;28;20257;-69
2020/12/18 10:53:35;;;;;;;4.32;1.95;;;4.70;99.90;;;;;;4972449;28;20275;-68
2020/12/18 10:56:01;;;;;;;3.38;1.83;;;4.80;99.90;;;;;;4979562;28;20196;-70
2020/12/18 10:58:27;;;;;;;7.00;2.10;;;4.90;99.90;;;;;;4971285;28;20592;-68
2020/12/18 11:00:52;;;;;;;4.07;1.70;;;4.90;99.90;;;;;;4978180;28;20704;-69
2020/12/18 11:03:18;;;;;;;3.55;1.67;;;4.90;99.90;;;;;;4974404;28;20540;-69
2020/12/18 11:05:43;;;;;;;13.68;1.90;;;5.00;99.90;;;;;;4977244;28;22636;-69
2020/12/18 11:08:09;;;;;;;3.80;1.83;;;5.10;99.90;;;;;;4975316;28;20603;-69
2020/12/18 11:10:36;;;;;;;7.85;2.10;;;5.10;99.90;;;;;;4978931;28;20215;-67
2020/12/18 11:13:02;;;;;;;7.18;1.92;;;5.10;99.90;;;;;;4977390;28;20286;-68
2020/12/18 11:15:27;;;;;;;5.38;1.80;;;5.10;99.90;;;;;;4973211;28;20242;-68
2020/12/18 11:17:53;;;;;;;8.00;2.05;;;5.20;99.90;;;;;;4975228;28;20207;-68
2020/12/18 11:20:19;;;;;;;6.63;1.90;;;5.20;99.90;;;;;;4973325;28;20215;-69
2020/12/18 11:22:44;;;;;;;9.00;2.10;;;5.20;99.90;;;;;;4971729;28;20199;-69
2020/12/18 11:25:10;;;;;;;8.07;2.30;;;5.40;99.90;;;;;;4971997;28;20223;-69
2020/12/18 11:27:36;;;;;;;6.80;2.25;;;5.40;99.90;;;;;;4979004;28;20583;-69
2020/12/18 11:30:03;;;;;;;11.85;2.00;;;5.60;99.90;;;;;;4971538;28;20199;-68
2020/12/18 11:32:29;;;;;;;9.27;2.05;;;5.70;99.90;;;;;;4974216;28;20214;-68
2020/12/18 11:34:54;;;;;;;9.93;1.60;;;5.80;99.90;;;;;;4974014;28;20200;-69
2020/12/18 11:37:21;;;;;;;7.47;1.80;;;5.80;99.90;;;;;;4979267;28;20556;-69
2020/12/18 11:39:47;;;;;;;7.18;2.03;;;5.70;99.90;;;;;;4968957;28;20311;-68
2020/12/18 11:42:13;;;;;;;5.05;1.65;;;5.70;99.90;;;;;;4972458;28;20804;-68
2020/12/18 11:44:39;;;;;;;8.85;1.90;;;5.60;99.90;;;;;;4976593;28;20190;-68
2020/12/18 11:47:05;;;;;;;6.65;2.20;;;5.50;99.90;;;;;;4981723;28;20292;-69
2020/12/18 11:49:31;;;;;;;5.90;2.08;;;5.50;99.90;;;;;;4974977;28;20204;-69
2020/12/18 11:51:57;;;;;;;5.97;1.75;;;5.50;99.90;;;;;;4972305;28;20764;-69
2020/12/18 11:54:22;;;;;;;6.05;1.90;;;5.40;99.90;;;;;;4969426;28;20204;-69
2020/12/18 11:56:49;;;;;;;9.52;2.40;;;5.40;99.90;;;;;;4970462;28;20195;-69
2020/12/18 11:59:15;;;;;;;17.23;2.47;;;5.30;99.90;;;;;;4975606;28;20261;-69
2020/12/18 12:01:41;;;;;;;11.88;2.08;;;5.30;99.90;;;;;;4975810;28;20222;-69
2020/12/18 12:04:06;;;;;;;5.65;2.00;;;5.30;99.90;;;;;;4971085;28;20233;-68
2020/12/18 12:06:32;;;;;;;5.45;2.15;;;5.40;99.90;;;;;;4973781;28;20206;-68
2020/12/18 12:09:03;;;;;;;8.63;2.20;;;5.40;99.90;;;;;;4975460;28;20725;-69
2020/12/18 12:11:38;;;;;;;6.28;2.78;;;5.30;99.90;;;;;;4972266;28;21441;-69
2020/12/18 12:14:05;;;;;;;8.55;2.50;;;5.30;99.90;;;;;;4977341;28;20199;-68
2020/12/18 12:16:35;;;;;;;8.30;2.35;;;5.30;99.90;;;;;;4975362;28;20579;-68
2020/12/18 12:19:01;;;;;;;6.65;2.65;;;5.30;99.90;;;;;;4971731;28;20593;-69
2020/12/18 12:21:33;;;;;;;9.88;2.50;;;5.20;99.90;;;;;;4974571;28;20207;-69
2020/12/18 12:23:59;;;;;;;11.43;2.65;;;5.20;99.90;;;;;;4971941;28;20196;-69
2020/12/18 12:26:24;;;;;;;15.35;3.10;;;5.20;99.90;;;;;;4974406;28;20200;-68
2020/12/18 12:28:50;;;;;;;7.57;2.53;;;5.20;99.90;;;;;;4970163;28;20242;-70
2020/12/18 12:31:16;;;;;;;21.98;2.90;;;5.20;99.90;;;;;;4971157;28;20203;-68
2020/12/18 12:33:42;;;;;;;12.32;3.30;;;5.30;99.90;;;;;;4967715;28;20286;-69
2020/12/18 12:36:07;;;;;;;12.02;2.88;;;5.30;99.90;;;;;;4974100;28;20231;-68
2020/12/18 12:38:33;;;;;;;14.73;4.00;;;5.30;99.90;;;;;;4975443;28;20627;-68
2020/12/18 12:40:59;;;;;;;12.90;2.78;;;5.40;99.90;;;;;;4972163;28;20298;-69
2020/12/18 12:43:26;;;;;;;10.65;2.72;;;5.40;99.90;;;;;;4973608;28;20318;-69
2020/12/18 12:45:51;;;;;;;14.15;3.50;;;5.40;99.90;;;;;;4972919;28;20353;-68
2020/12/18 12:48:17;;;;;;;16.88;3.20;;;5.40;99.90;;;;;;4978803;28;20203;-68
2020/12/18 12:50:43;;;;;;;18.38;3.15;;;5.40;99.90;;;;;;4976455;28;20210;-68
2020/12/18 12:53:08;;;;;;;13.60;3.47;;;5.50;99.90;;;;;;4972982;28;20199;-70
2020/12/18 12:55:34;;;;;;;20.85;3.65;;;5.50;99.90;;;;;;4971707;28;20258;-68
2020/12/18 12:58:00;;;;;;;8.45;3.30;;;5.50;99.90;;;;;;4972157;28;20198;-68
2020/12/18 13:00:25;;;;;;;14.15;3.28;;;5.50;99.90;;;;;;4974182;28;20361;-68